Airfield :
LOGIN :

Register | Disclaimer

   EN    FR    IT 

 










Legend :    VFR   Marginal VFR   IFR   Intensive IFR   Very Intensive IFR
Visi :
Ceiling :
>= 8 km
>= 3000ft
5 to 8 km
1000 to 3000 ft
1500m to 5 km
500 to 1000 ft
800 to 1500m
200 to 500 ft
< 800m
< 200 ft
Symbols :   Thunderstorms  Fog  Heavy snow  Heavy precipitations  Wind > 20 kt
SIGMETs :     Misc.  Thunderstorms  Icing  Turbulence  Mountain Waves  Volcanic Ashes






- Airport Elevation : 5600 ft
- IATA code : SMV


LSZS - Samedan

CURRENT METAR :
  • 292320Z AUTO 00000KT 9999 SCT022 SCT031 BKN085 07/05 Q1014

EXPIRED METARs :
  • 292250Z AUTO VRB02KT 9999 BKN028 BKN031 BKN050 07/05 Q1014
  • 292220Z AUTO VRB01KT 9999 FEW035 BKN049 08/05 Q1015
  • 292150Z AUTO VRB02KT 9999 SCT027 BKN031 BKN035 07/05 Q1015
  • 292120Z AUTO 18004KT 9999 NCD 08/06 Q1015
  • 292050Z AUTO 15005KT 110V210 9999 FEW048 BKN055 09/06 Q1015
  • 292020Z AUTO 16006KT 9999 FEW050 10/07 Q1015
  • 291950Z AUTO 18007KT 150V220 9999 OVC080 10/06 Q1016
  • 291920Z AUTO 17006KT 130V210 9999 FEW060 BKN070 BKN080 10/06 Q1015
  • 291850Z AUTO 17005KT 130V230 9999 FEW050 BKN070 11/06 Q1015

TAF TAF LSZS
Valid from the 29 at 15:00 until the 30 at 00:00 UTC


291425Z 2915/2924 21012KT 9999 SCT075 TX16/2915Z
BECMG 2916/2918 VRB02KT
PROB30
TEMPO 2917/2920 SHRA
ATIS : +41 81 834 93 24



MET'MAP, your aeronautical weather chart ! - Copyright ORBIFLY December 2007 - Disclaimer

ORBIFLY MET'MAP TEAM :

Programming & Development : Alexandra Zaïnal
Original concept : Baudouin d'Aumeries
Technical & hardware support : Manuel Goepfert
Assistance : Marc-Olivier Méhu




SOURCES & CREDITS :

   NOAA